DLH73U EDDB-LEAL
Flight info
| Callsign | DLH73U |
|---|---|
| Flight time | N/A |
| Altitude | 37000 |
| Route | KISUC1Z KISUC Z117 ORTAG/N0478F390 DCT BAMKI/N0479F380 DCT IBAGA DCT DKB N869 TEDGO/N0479F390 N869 NATOR DCT LUTIX DCT BENOT DCT NEMOS DCT GEVEA/N0478F330 DCT INCUS DCT BALSI/N0475F390 DCT RETNO DCT TUPOX DCT MTG DCT DIVKO DCT VATIR N852 PIVUS Z237 OKITI M603 GERVU |
| Aircraft | A339/H-SADE1E2E3GHIJ3J5M1P2RWXY/LB2D1 |
Departure
| Time | 2026-05-07 10:19 |
|---|---|
| Airport | Berlin Brandenburg Airport (EDDB) |
Arrival
| Time | N/A |
|---|---|
| Airport | Alicante-Elche Miguel Hernández Airport (LEAL) |
| Time | Latitude | Longitude | Altitude | Speed | Heading |
|---|---|---|---|---|---|
| 2026-05-07 09:49 | 52.36208 | 13.50684 | 174 ft | 0 kts | 69° |
| 2026-05-07 10:04 | 52.36207 | 13.50683 | 174 ft | 1 kts | 69° |
| 2026-05-07 10:04 | 52.36202 | 13.50661 | 175 ft | 2 kts | 71° |
| 2026-05-07 10:04 | 52.36199 | 13.50637 | 174 ft | 2 kts | 88° |
| 2026-05-07 10:05 | 52.36199 | 13.50612 | 174 ft | 2 kts | 99° |
| 2026-05-07 10:05 | 52.36203 | 13.50589 | 174 ft | 2 kts | 111° |
| 2026-05-07 10:05 | 52.36209 | 13.50567 | 175 ft | 2 kts | 124° |
| 2026-05-07 10:05 | 52.36218 | 13.50548 | 174 ft | 2 kts | 136° |
| 2026-05-07 10:06 | 52.36230 | 13.50532 | 174 ft | 2 kts | 149° |
| 2026-05-07 10:06 | 52.36240 | 13.50524 | 175 ft | 0 kts | 158° |
| 2026-05-07 10:06 | 52.36243 | 13.50522 | 175 ft | 0 kts | 159° |
| 2026-05-07 10:09 | 52.36241 | 13.50523 | 174 ft | 1 kts | 156° |
| 2026-05-07 10:09 | 52.36222 | 13.50542 | 174 ft | 4 kts | 140° |
| 2026-05-07 10:10 | 52.36190 | 13.50575 | 174 ft | 7 kts | 165° |
| 2026-05-07 10:10 | 52.36129 | 13.50603 | 174 ft | 10 kts | 162° |
| 2026-05-07 10:10 | 52.36049 | 13.50650 | 174 ft | 14 kts | 159° |
| 2026-05-07 10:10 | 52.35947 | 13.50712 | 174 ft | 16 kts | 159° |
| 2026-05-07 10:11 | 52.35834 | 13.50766 | 174 ft | 16 kts | 195° |
| 2026-05-07 10:11 | 52.35772 | 13.50612 | 174 ft | 17 kts | 250° |
| 2026-05-07 10:11 | 52.35730 | 13.50433 | 174 ft | 16 kts | 250° |
| 2026-05-07 10:11 | 52.35687 | 13.50255 | 174 ft | 16 kts | 250° |
| 2026-05-07 10:12 | 52.35643 | 13.50067 | 174 ft | 18 kts | 250° |
| 2026-05-07 10:12 | 52.35596 | 13.49871 | 174 ft | 19 kts | 249° |
| 2026-05-07 10:12 | 52.35540 | 13.49631 | 174 ft | 24 kts | 249° |
| 2026-05-07 10:12 | 52.35473 | 13.49353 | 174 ft | 27 kts | 249° |
| 2026-05-07 10:13 | 52.35405 | 13.49066 | 174 ft | 26 kts | 249° |
| 2026-05-07 10:13 | 52.35340 | 13.48786 | 174 ft | 25 kts | 250° |
| 2026-05-07 10:13 | 52.35277 | 13.48522 | 174 ft | 24 kts | 250° |
| 2026-05-07 10:13 | 52.35217 | 13.48274 | 174 ft | 22 kts | 249° |
| 2026-05-07 10:14 | 52.35160 | 13.48040 | 174 ft | 21 kts | 251° |
| 2026-05-07 10:14 | 52.35105 | 13.47821 | 174 ft | 20 kts | 253° |
| 2026-05-07 10:14 | 52.35057 | 13.47606 | 174 ft | 20 kts | 250° |
| 2026-05-07 10:14 | 52.35006 | 13.47391 | 174 ft | 19 kts | 250° |
| 2026-05-07 10:15 | 52.34956 | 13.47185 | 174 ft | 18 kts | 246° |
| 2026-05-07 10:15 | 52.34916 | 13.46986 | 174 ft | 18 kts | 252° |
| 2026-05-07 10:15 | 52.34865 | 13.46799 | 174 ft | 17 kts | 251° |
| 2026-05-07 10:15 | 52.34826 | 13.46634 | 174 ft | 14 kts | 244° |
| 2026-05-07 10:16 | 52.34761 | 13.46589 | 174 ft | 10 kts | 169° |
| 2026-05-07 10:16 | 52.34692 | 13.46626 | 174 ft | 10 kts | 159° |
| 2026-05-07 10:16 | 52.34677 | 13.46636 | 174 ft | 0 kts | 159° |
| 2026-05-07 10:17 | 52.34674 | 13.46638 | 174 ft | 1 kts | 158° |
| 2026-05-07 10:17 | 52.34640 | 13.46673 | 174 ft | 11 kts | 136° |
| 2026-05-07 10:17 | 52.34595 | 13.46803 | 174 ft | 14 kts | 115° |
| 2026-05-07 10:17 | 52.34581 | 13.46984 | 174 ft | 18 kts | 74° |
| 2026-05-07 10:18 | 52.34672 | 13.47382 | 175 ft | 68 kts | 69° |
| 2026-05-07 10:18 | 52.34917 | 13.48414 | 175 ft | 125 kts | 69° |
| 2026-05-07 10:18 | 52.35295 | 13.49979 | 266 ft | 162 kts | 67° |
| 2026-05-07 10:18 | 52.35659 | 13.51739 | 757 ft | 169 kts | 79° |
| 2026-05-07 10:19 | 52.35784 | 13.53699 | 1305 ft | 179 kts | 86° |
| 2026-05-07 10:19 | 52.35859 | 13.55709 | 2013 ft | 178 kts | 87° |
| 2026-05-07 10:19 | 52.35944 | 13.57694 | 2591 ft | 178 kts | 87° |
| 2026-05-07 10:19 | 52.36018 | 13.59785 | 2969 ft | 190 kts | 86° |
| 2026-05-07 10:20 | 52.36185 | 13.62016 | 3271 ft | 207 kts | 81° |
| 2026-05-07 10:20 | 52.36448 | 13.64399 | 3707 ft | 219 kts | 82° |
| 2026-05-07 10:20 | 52.36703 | 13.66865 | 4361 ft | 222 kts | 83° |
| 2026-05-07 10:20 | 52.36958 | 13.69339 | 5024 ft | 225 kts | 83° |
| 2026-05-07 10:21 | 52.36940 | 13.71867 | 5648 ft | 224 kts | 111° |
| 2026-05-07 10:21 | 52.36103 | 13.73944 | 6271 ft | 224 kts | 141° |
| 2026-05-07 10:21 | 52.34723 | 13.75105 | 6918 ft | 226 kts | 163° |
| 2026-05-07 10:21 | 52.33214 | 13.75750 | 7577 ft | 229 kts | 172° |
| 2026-05-07 10:22 | 52.31623 | 13.75745 | 8220 ft | 232 kts | 190° |
| 2026-05-07 10:22 | 52.30021 | 13.75028 | 8624 ft | 248 kts | 198° |
| 2026-05-07 10:22 | 52.28337 | 13.74082 | 9005 ft | 264 kts | 199° |
| 2026-05-07 10:22 | 52.26599 | 13.73041 | 9634 ft | 270 kts | 206° |
| 2026-05-07 10:23 | 52.25110 | 13.71200 | 10344 ft | 274 kts | 230° |
| 2026-05-07 10:23 | 52.24164 | 13.68511 | 10816 ft | 287 kts | 247° |
| 2026-05-07 10:23 | 52.23436 | 13.65379 | 11139 ft | 304 kts | 249° |
| 2026-05-07 10:23 | 52.22686 | 13.62044 | 11434 ft | 322 kts | 248° |
| 2026-05-07 10:24 | 52.21803 | 13.58568 | 11708 ft | 339 kts | 249° |
| 2026-05-07 10:24 | 52.20981 | 13.54903 | 12011 ft | 355 kts | 250° |
| 2026-05-07 10:24 | 52.20145 | 13.51081 | 12557 ft | 363 kts | 251° |
| 2026-05-07 10:24 | 52.19436 | 13.47095 | 13322 ft | 364 kts | 256° |
| 2026-05-07 10:25 | 52.18962 | 13.43090 | 14084 ft | 366 kts | 261° |
| 2026-05-07 10:25 | 52.18691 | 13.38948 | 14837 ft | 367 kts | 264° |
| 2026-05-07 10:25 | 52.18478 | 13.34850 | 15557 ft | 369 kts | 264° |
| 2026-05-07 10:25 | 52.18268 | 13.30683 | 16292 ft | 370 kts | 264° |
| 2026-05-07 10:26 | 52.18056 | 13.26536 | 17010 ft | 372 kts | 264° |
| 2026-05-07 10:26 | 52.17838 | 13.22340 | 17719 ft | 373 kts | 264° |
| 2026-05-07 10:26 | 52.17616 | 13.18128 | 18418 ft | 374 kts | 264° |
| 2026-05-07 10:26 | 52.17393 | 13.13897 | 19118 ft | 376 kts | 263° |
| 2026-05-07 10:27 | 52.17170 | 13.09722 | 19803 ft | 376 kts | 263° |
| 2026-05-07 10:27 | 52.16941 | 13.05497 | 20463 ft | 377 kts | 263° |
| 2026-05-07 10:27 | 52.16709 | 13.01250 | 21096 ft | 378 kts | 262° |
| 2026-05-07 10:27 | 52.16401 | 12.97003 | 21702 ft | 378 kts | 259° |
| 2026-05-07 10:28 | 52.15958 | 12.92802 | 22283 ft | 379 kts | 257° |
| 2026-05-07 10:28 | 52.15390 | 12.88615 | 22851 ft | 379 kts | 256° |
| 2026-05-07 10:28 | 52.14800 | 12.84404 | 23384 ft | 381 kts | 256° |
| 2026-05-07 10:28 | 52.14208 | 12.80202 | 23896 ft | 382 kts | 256° |
| 2026-05-07 10:29 | 52.13621 | 12.76046 | 24386 ft | 384 kts | 256° |
| 2026-05-07 10:29 | 52.13015 | 12.71776 | 24870 ft | 385 kts | 257° |
| 2026-05-07 10:29 | 52.12413 | 12.67546 | 25332 ft | 387 kts | 257° |
| 2026-05-07 10:30 | 52.11194 | 12.59015 | 26207 ft | 390 kts | 257° |
| 2026-05-07 10:30 | 52.10583 | 12.54758 | 26618 ft | 391 kts | 258° |
| 2026-05-07 10:30 | 52.09961 | 12.50440 | 27015 ft | 393 kts | 258° |
| 2026-05-07 10:30 | 52.09331 | 12.46086 | 27398 ft | 395 kts | 258° |
| 2026-05-07 10:31 | 52.08702 | 12.41747 | 27766 ft | 397 kts | 258° |
| 2026-05-07 10:31 | 52.07928 | 12.37468 | 28113 ft | 400 kts | 254° |
| 2026-05-07 10:31 | 52.06891 | 12.33274 | 28462 ft | 404 kts | 249° |
| 2026-05-07 10:31 | 52.05612 | 12.29236 | 28803 ft | 409 kts | 245° |
| 2026-05-07 10:32 | 52.04058 | 12.25298 | 29137 ft | 415 kts | 240° |
| 2026-05-07 10:32 | 52.02382 | 12.21555 | 29575 ft | 414 kts | 240° |
| 2026-05-07 10:32 | 52.00684 | 12.17812 | 30025 ft | 413 kts | 240° |
| 2026-05-07 10:32 | 51.98982 | 12.14088 | 30437 ft | 413 kts | 240° |
| 2026-05-07 10:33 | 51.97274 | 12.10360 | 30828 ft | 413 kts | 241° |
| 2026-05-07 10:33 | 51.95564 | 12.06638 | 31209 ft | 412 kts | 241° |
| 2026-05-07 10:33 | 51.93837 | 12.02887 | 31586 ft | 412 kts | 242° |
| 2026-05-07 10:33 | 51.92134 | 11.99193 | 31961 ft | 412 kts | 242° |
| 2026-05-07 10:34 | 51.90444 | 11.95534 | 32319 ft | 412 kts | 242° |
| 2026-05-07 10:34 | 51.88713 | 11.91792 | 32653 ft | 412 kts | 242° |
| 2026-05-07 10:34 | 51.87006 | 11.88108 | 32981 ft | 412 kts | 243° |
| 2026-05-07 10:34 | 51.85287 | 11.84407 | 33316 ft | 412 kts | 243° |
| 2026-05-07 10:35 | 51.83559 | 11.80726 | 33629 ft | 413 kts | 243° |
| 2026-05-07 10:35 | 51.81831 | 11.77083 | 33914 ft | 414 kts | 243° |
| 2026-05-07 10:35 | 51.80080 | 11.73395 | 34209 ft | 414 kts | 243° |
| 2026-05-07 10:35 | 51.78337 | 11.69726 | 34516 ft | 414 kts | 243° |
| 2026-05-07 10:36 | 51.76595 | 11.66063 | 34832 ft | 413 kts | 243° |
| 2026-05-07 10:36 | 51.74840 | 11.62377 | 35138 ft | 412 kts | 243° |
| 2026-05-07 10:36 | 51.73108 | 11.58742 | 35410 ft | 413 kts | 243° |
| 2026-05-07 10:36 | 51.71354 | 11.55067 | 35638 ft | 413 kts | 243° |
| 2026-05-07 10:37 | 51.69619 | 11.51433 | 35846 ft | 415 kts | 243° |
| 2026-05-07 10:37 | 51.67857 | 11.47750 | 36054 ft | 415 kts | 243° |
| 2026-05-07 10:37 | 51.66104 | 11.44092 | 36256 ft | 416 kts | 243° |
| 2026-05-07 10:37 | 51.64331 | 11.40398 | 36436 ft | 417 kts | 243° |
| 2026-05-07 10:38 | 51.62557 | 11.36704 | 36614 ft | 418 kts | 243° |
| 2026-05-07 10:38 | 51.60796 | 11.33047 | 36800 ft | 419 kts | 242° |
| 2026-05-07 10:38 | 51.59018 | 11.29358 | 36964 ft | 421 kts | 242° |
| 2026-05-07 10:38 | 51.57235 | 11.25665 | 36994 ft | 423 kts | 242° |
| 2026-05-07 10:39 | 51.53395 | 11.18458 | 36999 ft | 434 kts | 234° |
| 2026-05-07 10:39 | 51.48503 | 11.12593 | 37002 ft | 450 kts | 222° |
| 2026-05-07 10:40 | 51.45673 | 11.10323 | 37003 ft | 462 kts | 215° |
| 2026-05-07 10:40 | 51.42609 | 11.08587 | 37004 ft | 475 kts | 207° |
| 2026-05-07 10:40 | 51.39338 | 11.07461 | 37006 ft | 489 kts | 200° |
| 2026-05-07 10:40 | 51.35967 | 11.06964 | 37009 ft | 497 kts | 195° |
| 2026-05-07 10:41 | 51.29070 | 11.06438 | 37010 ft | 499 kts | 194° |
| 2026-05-07 10:41 | 51.22133 | 11.05949 | 37011 ft | 498 kts | 194° |
| 2026-05-07 10:42 | 51.15250 | 11.05427 | 37011 ft | 499 kts | 194° |
| 2026-05-07 10:42 | 51.08360 | 11.04889 | 37011 ft | 498 kts | 194° |
| 2026-05-07 10:43 | 51.01449 | 11.04344 | 37010 ft | 499 kts | 194° |
| 2026-05-07 10:43 | 50.94553 | 11.03790 | 37009 ft | 504 kts | 193° |
| 2026-05-07 10:44 | 50.87571 | 11.03240 | 37005 ft | 507 kts | 192° |
| 2026-05-07 10:44 | 50.80553 | 11.02706 | 37010 ft | 508 kts | 192° |
| 2026-05-07 10:45 | 50.73614 | 11.01761 | 37011 ft | 501 kts | 198° |
| 2026-05-07 10:45 | 50.66835 | 10.99634 | 37011 ft | 492 kts | 205° |
| 2026-05-07 10:46 | 50.60355 | 10.96577 | 37012 ft | 485 kts | 208° |
| 2026-05-07 10:46 | 50.53984 | 10.93487 | 37011 ft | 483 kts | 208° |
| 2026-05-07 10:47 | 50.47604 | 10.90422 | 37011 ft | 481 kts | 208° |
| 2026-05-07 10:47 | 50.41222 | 10.87373 | 37011 ft | 480 kts | 208° |
| 2026-05-07 10:48 | 50.34877 | 10.84354 | 37011 ft | 477 kts | 208° |
| 2026-05-07 10:48 | 50.28582 | 10.81366 | 37011 ft | 475 kts | 208° |
| 2026-05-07 10:49 | 50.22271 | 10.78381 | 37011 ft | 473 kts | 208° |
| 2026-05-07 10:49 | 50.16000 | 10.75419 | 37011 ft | 474 kts | 208° |
| 2026-05-07 10:50 | 50.09735 | 10.72471 | 37011 ft | 473 kts | 208° |
| 2026-05-07 10:50 | 50.03449 | 10.69520 | 37010 ft | 473 kts | 208° |
| 2026-05-07 10:51 | 49.97188 | 10.66588 | 37011 ft | 473 kts | 208° |
| 2026-05-07 10:51 | 49.90874 | 10.63641 | 37013 ft | 473 kts | 208° |
| 2026-05-07 10:52 | 49.84704 | 10.60769 | 37012 ft | 473 kts | 208° |
| 2026-05-07 10:52 | 49.78438 | 10.57861 | 37016 ft | 472 kts | 208° |
| 2026-05-07 10:53 | 49.72226 | 10.54809 | 37018 ft | 468 kts | 211° |
| 2026-05-07 10:53 | 49.66083 | 10.51485 | 37019 ft | 469 kts | 211° |
| 2026-05-07 10:54 | 49.59981 | 10.48199 | 37019 ft | 469 kts | 211° |
| 2026-05-07 10:54 | 49.53835 | 10.44898 | 37019 ft | 469 kts | 211° |
| 2026-05-07 10:55 | 49.47696 | 10.41606 | 37021 ft | 469 kts | 211° |
| 2026-05-07 10:55 | 49.41550 | 10.38321 | 37022 ft | 468 kts | 211° |
| 2026-05-07 10:56 | 49.35421 | 10.35052 | 37023 ft | 469 kts | 211° |
| 2026-05-07 10:56 | 49.29352 | 10.31822 | 37024 ft | 470 kts | 210° |
| 2026-05-07 10:57 | 49.23245 | 10.28532 | 37021 ft | 466 kts | 212° |
| 2026-05-07 10:57 | 49.17517 | 10.24259 | 37021 ft | 451 kts | 221° |
| 2026-05-07 10:58 | 49.12510 | 10.18808 | 37022 ft | 438 kts | 231° |
| 2026-05-07 10:58 | 49.08270 | 10.12419 | 37023 ft | 428 kts | 239° |
| 2026-05-07 10:59 | 49.04507 | 10.05377 | 37026 ft | 431 kts | 240° |
| 2026-05-07 10:59 | 49.00735 | 9.98237 | 37028 ft | 436 kts | 240° |
| 2026-05-07 11:00 | 48.96905 | 9.91017 | 37028 ft | 443 kts | 240° |
| 2026-05-07 11:00 | 48.93016 | 9.83714 | 37029 ft | 446 kts | 240° |
| 2026-05-07 11:01 | 48.89222 | 9.76618 | 37027 ft | 446 kts | 240° |
| 2026-05-07 11:01 | 48.85312 | 9.69323 | 37028 ft | 446 kts | 240° |
| 2026-05-07 11:02 | 48.81404 | 9.62050 | 37029 ft | 446 kts | 240° |
| 2026-05-07 11:02 | 48.77490 | 9.54787 | 37029 ft | 446 kts | 240° |
| 2026-05-07 11:03 | 48.73573 | 9.47543 | 37030 ft | 446 kts | 240° |
| 2026-05-07 11:03 | 48.69663 | 9.40324 | 37029 ft | 446 kts | 240° |
| 2026-05-07 11:04 | 48.65779 | 9.33175 | 37032 ft | 446 kts | 239° |
| 2026-05-07 11:04 | 48.62712 | 9.27522 | 37031 ft | 446 kts | 240° |
| 2026-05-07 11:05 | 48.59065 | 9.20033 | 37030 ft | 442 kts | 243° |
| 2026-05-07 11:05 | 48.55513 | 9.12505 | 37030 ft | 442 kts | 243° |
| 2026-05-07 11:06 | 48.51959 | 9.04988 | 37030 ft | 440 kts | 243° |
| 2026-05-07 11:06 | 48.48418 | 8.97514 | 37031 ft | 437 kts | 242° |
| 2026-05-07 11:07 | 48.44923 | 8.90161 | 37030 ft | 434 kts | 242° |